Indianapolis, Indiana
Current Conditions -  °F | °C
As of 8:54 AM on Saturday 25 Oct 2014 (Local Time) from KIND Reporting Station
Haze Haze  
Wind Chill: 13°   Ceiling: 2100
Heat Index: 13°   Visibility: 6mi
Dew Point: 11°   Wind: 9mph
Humidity: 86%   Direction: 240°WSW
Pressure: 29.97"   Gusts: NA
Location:  39.77°N, 86.15°W
Report Text: KIND 251254Z 24008KT 6SM BR OVC021 13/11 A2997 RMK AO2 SLP149 T01280106
Loading
Personal Weather Stations






























Interactive Weather Map New forecast layout! Learn more

10-Day Weather Forecast

Advertisements
Track Severe Weather on mobile